Time;durP1;ratioP1;P1;durP2;ratioP2;P2;SDS_P1;SDS_P2;PMS_P1;PMS_P2;Temp;Humidity;BMP_temperature;BMP_pressure;BME280_temperature;BME280_humidity;BME280_pressure;Samples;Min_cycle;Max_cycle;Signal;HPM_P1;HPM_P2
2023/09/01 00:02:45;;;;;;;17.90;5.40;;;;;;;19.84;51.63;98798.20;67688;1279;1016475;-59
2023/09/01 00:05:48;;;;;;;;;;;;;;;19.68;51.52;98796.73;67784;1278;1016462;-59
2023/09/01 00:08:50;;;;;;;18.70;6.50;;;;;;;19.57;51.41;98797.84;67783;1278;1016247;-59
2023/09/01 00:11:53;;;;;;;18.90;6.30;;;;;;;19.39;51.48;98793.09;67770;1278;1016364;-59
2023/09/01 00:14:55;;;;;;;19.70;5.70;;;;;;;19.27;51.60;98791.41;67735;1279;1016390;-58
2023/09/01 00:17:57;;;;;;;20.90;6.20;;;;;;;19.26;51.66;98789.40;67709;1278;1016372;-59
2023/09/01 00:21:00;;;;;;;17.90;5.90;;;;;;;19.18;51.66;98788.91;67755;1278;1016468;-58
2023/09/01 00:24:03;;;;;;;21.00;5.90;;;;;;;18.99;51.84;98790.91;67770;1278;1016493;-58
2023/09/01 00:27:05;;;;;;;18.80;5.80;;;;;;;18.82;52.16;98796.20;67758;1278;1016331;-59
2023/09/01 00:30:08;;;;;;;15.90;4.90;;;;;;;18.83;52.04;98796.44;67744;1278;1018236;-59
2023/09/01 00:33:11;;;;;;;17.90;5.30;;;;;;;18.68;52.22;98798.48;67753;1279;1015963;-59
2023/09/01 00:36:13;;;;;;;17.30;5.20;;;;;;;18.53;52.03;98793.15;67747;1278;1016440;-58
2023/09/01 00:39:15;;;;;;;19.30;6.30;;;;;;;18.54;52.26;98791.30;67753;1278;1015996;-62
2023/09/01 00:42:18;;;;;;;21.10;6.40;;;;;;;18.54;52.48;98795.52;67700;1278;1016250;-59
2023/09/01 00:45:20;;;;;;;19.90;6.40;;;;;;;18.59;52.31;98796.15;67770;1278;1016520;-59
2023/09/01 00:48:23;;;;;;;19.70;6.50;;;;;;;18.60;52.14;98794.60;67792;1278;1018589;-59
2023/09/01 00:51:25;;;;;;;20.50;6.70;;;;;;;18.58;52.36;98794.48;67768;1278;1018615;-59
2023/09/01 00:54:27;;;;;;;19.60;6.00;;;;;;;18.58;52.09;98795.88;67748;1278;1016470;-58
2023/09/01 00:57:30;;;;;;;18.80;6.00;;;;;;;18.64;51.95;98792.77;67736;1279;1019183;-59
2023/09/01 01:00:33;;;;;;;20.10;6.00;;;;;;;18.46;52.38;98789.67;67739;1278;1019457;-59
2023/09/01 01:03:36;;;;;;;24.50;6.30;;;;;;;18.46;52.43;98793.73;67728;1278;1016611;-59
2023/09/01 01:06:39;;;;;;;17.50;6.20;;;;;;;18.51;52.52;98796.52;67740;1278;1016213;-59
2023/09/01 01:09:41;;;;;;;16.20;4.70;;;;;;;18.43;52.45;98799.92;67781;1279;1016212;-59
2023/09/01 01:12:44;;;;;;;19.10;6.00;;;;;;;18.44;52.30;98802.32;67801;1278;1016366;-58
2023/09/01 01:15:46;;;;;;;21.40;6.80;;;;;;;18.49;52.09;98799.14;67772;1278;1016473;-58
2023/09/01 01:18:49;;;;;;;35.30;13.30;;;;;;;18.34;52.11;98800.77;67805;1279;1016463;-58
2023/09/01 01:21:52;;;;;;;27.00;9.40;;;;;;;18.10;52.33;98801.53;67728;1278;1016197;-60
2023/09/01 01:24:54;;;;;;;22.80;6.50;;;;;;;18.05;52.41;98804.67;67742;1278;1016239;-59
2023/09/01 01:27:56;;;;;;;24.70;8.50;;;;;;;18.00;52.62;98804.06;67742;1278;1015954;-59
2023/09/01 01:30:59;;;;;;;23.60;8.00;;;;;;;18.13;52.44;98802.90;67767;1278;1016440;-60
2023/09/01 01:34:01;;;;;;;20.10;7.00;;;;;;;18.08;52.67;98804.60;67785;1278;1017566;-59
2023/09/01 01:37:04;;;;;;;18.80;6.50;;;;;;;17.98;53.11;98802.13;67795;1279;1016465;-59
2023/09/01 01:40:06;;;;;;;19.50;6.20;;;;;;;17.92;53.57;98801.08;67750;1278;1016098;-59
2023/09/01 01:43:08;;;;;;;23.60;6.80;;;;;;;18.04;53.60;98801.54;67716;1278;1016952;-59
2023/09/01 01:46:11;;;;;;;21.10;6.30;;;;;;;18.37;52.72;98803.29;67801;1279;1016252;-60
2023/09/01 01:49:13;;;;;;;16.70;5.70;;;;;;;18.34;52.76;98807.33;67774;1278;1016260;-59
2023/09/01 01:52:16;;;;;;;18.70;5.50;;;;;;;18.20;52.60;98803.80;67779;1278;1016076;-59
2023/09/01 01:55:18;;;;;;;19.20;6.00;;;;;;;18.21;52.21;98803.05;67722;1279;1016371;-59
2023/09/01 01:58:20;;;;;;;16.40;5.50;;;;;;;18.18;52.11;98800.98;67725;1279;1016357;-59
2023/09/01 02:01:23;;;;;;;17.80;5.10;;;;;;;18.13;52.37;98802.56;67762;1278;1016634;-59
2023/09/01 02:04:25;;;;;;;16.70;5.40;;;;;;;18.00;52.49;98803.92;67780;1279;1016175;-59
2023/09/01 02:07:28;;;;;;;18.20;5.20;;;;;;;17.95;52.37;98805.07;67751;1278;1018921;-59
2023/09/01 02:10:30;;;;;;;18.60;5.70;;;;;;;17.94;52.70;98806.19;67803;1256;1016139;-59
2023/09/01 02:13:32;;;;;;;16.00;5.60;;;;;;;17.97;52.46;98807.02;67743;1279;1016426;-59
2023/09/01 02:16:35;;;;;;;21.30;6.30;;;;;;;17.93;52.47;98802.58;67712;1278;1016403;-60
2023/09/01 02:19:37;;;;;;;17.00;5.20;;;;;;;17.88;52.64;98802.83;67704;1279;1016672;-59
2023/09/01 02:22:39;;;;;;;19.20;5.60;;;;;;;17.95;52.55;98799.92;67761;1278;1016427;-59
2023/09/01 02:25:42;;;;;;;19.10;6.30;;;;;;;17.94;52.66;98799.34;67715;1278;1016290;-59
2023/09/01 02:28:44;;;;;;;18.90;6.80;;;;;;;17.98;53.03;98799.67;67796;1278;1016458;-59
2023/09/01 02:31:47;;;;;;;20.50;6.40;;;;;;;18.12;53.37;98800.52;67691;1278;1016481;-59
2023/09/01 02:34:50;;;;;;;25.40;9.60;;;;;;;18.29;54.21;98812.02;67744;1279;1016432;-59
2023/09/01 02:37:52;;;;;;;22.50;7.20;;;;;;;18.44;55.07;98822.78;67799;1278;1016154;-59
2023/09/01 02:40:55;;;;;;;25.80;8.60;;;;;;;18.25;55.32;98816.12;67787;1279;1016347;-58
2023/09/01 02:43:57;;;;;;;23.70;8.10;;;;;;;18.36;55.35;98819.00;67758;1278;1016394;-60
2023/09/01 02:47:00;;;;;;;21.60;8.00;;;;;;;18.47;55.11;98812.30;67763;1278;1015799;-59
2023/09/01 02:50:03;;;;;;;25.50;7.80;;;;;;;18.66;54.86;98806.10;67807;1278;1016177;-59
2023/09/01 02:53:06;;;;;;;;;;;;;;;18.73;55.02;98800.85;67779;1279;1016133;-59
2023/09/01 02:56:08;;;;;;;23.10;8.10;;;;;;;18.79;55.04;98802.02;67751;1279;1017026;-59
2023/09/01 02:59:10;;;;;;;23.90;7.70;;;;;;;18.79;55.16;98800.73;67784;1278;1016356;-59
2023/09/01 03:02:13;;;;;;;22.30;7.00;;;;;;;18.84;55.32;98804.39;67792;1279;1016426;-59
2023/09/01 03:05:15;;;;;;;22.50;6.80;;;;;;;18.90;55.13;98799.86;67788;1279;1016147;-59
2023/09/01 03:08:18;;;;;;;21.30;7.00;;;;;;;18.82;55.26;98802.63;67738;1279;1016449;-59
2023/09/01 03:11:20;;;;;;;22.50;7.30;;;;;;;18.82;55.33;98806.45;67727;1279;1016994;-59
2023/09/01 03:14:23;;;;;;;21.30;7.00;;;;;;;18.89;54.91;98805.56;67765;1279;1016491;-59
2023/09/01 03:17:26;;;;;;;20.20;6.60;;;;;;;19.09;54.30;98809.81;67752;1279;1016409;-59
2023/09/01 03:20:28;;;;;;;26.10;6.60;;;;;;;19.10;54.12;98813.84;67732;1279;1018380;-59
2023/09/01 03:23:31;;;;;;;22.20;7.80;;;;;;;18.99;54.31;98809.38;67776;1279;1016444;-59
2023/09/01 03:26:33;;;;;;;25.90;7.90;;;;;;;18.87;54.63;98803.38;67781;1278;1016430;-59
2023/09/01 03:29:36;;;;;;;21.80;7.00;;;;;;;18.91;54.53;98797.95;67729;1279;1016323;-59
2023/09/01 03:32:38;;;;;;;25.20;7.00;;;;;;;18.99;54.13;98800.08;67720;1279;1016409;-59
2023/09/01 03:35:41;;;;;;;22.40;7.10;;;;;;;18.95;53.96;98804.64;67706;1278;1016461;-59
2023/09/01 03:38:43;;;;;;;23.20;6.30;;;;;;;18.90;54.02;98806.88;67749;1279;1016348;-59
2023/09/01 03:41:45;;;;;;;20.60;6.30;;;;;;;18.87;53.92;98814.03;67803;1279;1016394;-59
2023/09/01 03:44:48;;;;;;;22.60;6.40;;;;;;;18.92;53.81;98813.71;67755;1279;1016283;-59
2023/09/01 03:47:50;;;;;;;20.90;6.20;;;;;;;18.95;53.82;98815.51;67726;1279;1016372;-59
2023/09/01 03:50:52;;;;;;;21.30;6.30;;;;;;;18.93;53.65;98818.27;67741;1279;1016194;-59
2023/09/01 03:53:55;;;;;;;20.30;6.60;;;;;;;18.83;53.68;98816.67;67729;1278;1016491;-59
2023/09/01 03:56:57;;;;;;;21.70;6.60;;;;;;;18.93;53.37;98816.45;67773;1278;1018972;-58
2023/09/01 04:00:00;;;;;;;20.50;6.40;;;;;;;18.85;53.45;98821.45;67780;1279;1016424;-59
2023/09/01 04:03:02;;;;;;;20.80;6.20;;;;;;;18.76;53.67;98824.48;67778;1279;1017229;-59
2023/09/01 04:06:05;;;;;;;22.40;6.50;;;;;;;18.66;53.99;98822.58;67720;1278;1016086;-58
2023/09/01 04:09:08;;;;;;;20.20;6.30;;;;;;;18.69;53.69;98825.79;67770;1278;1016592;-59
2023/09/01 04:12:11;;;;;;;20.20;6.30;;;;;;;18.72;53.61;98826.06;67706;1278;1016324;-58
2023/09/01 04:15:13;;;;;;;23.30;6.60;;;;;;;18.73;53.62;98826.70;67733;1278;1016237;-59
2023/09/01 04:18:16;;;;;;;20.30;6.50;;;;;;;18.74;53.57;98834.88;67764;1278;1016470;-59
2023/09/01 04:21:18;;;;;;;21.60;6.40;;;;;;;18.81;53.41;98834.42;67773;1278;1016426;-59
2023/09/01 04:24:21;;;;;;;22.50;7.00;;;;;;;18.98;53.22;98831.08;67752;1279;1016470;-59
2023/09/01 04:27:23;;;;;;;21.10;6.40;;;;;;;19.22;52.49;98829.15;67722;1278;1016676;-59
2023/09/01 04:30:26;;;;;;;20.30;6.40;;;;;;;19.27;52.51;98827.52;67775;1278;1016391;-58
2023/09/01 04:33:29;;;;;;;21.40;6.60;;;;;;;19.55;51.83;98829.47;67743;1279;1016794;-59
2023/09/01 04:36:31;;;;;;;22.60;6.00;;;;;;;19.58;51.83;98830.02;67743;1278;1015707;-59
2023/09/01 04:39:33;;;;;;;25.60;6.50;;;;;;;19.64;51.92;98830.86;67759;1279;1016403;-59
2023/09/01 04:42:36;;;;;;;21.50;6.50;;;;;;;19.77;51.76;98832.45;67812;1279;1016217;-59
2023/09/01 04:45:38;;;;;;;;;;;;;;;19.72;52.29;98832.08;67770;1278;1016290;-59
2023/09/01 04:48:41;;;;;;;21.40;6.00;;;;;;;20.01;52.26;98830.91;67718;1279;1016278;-59
2023/09/01 04:51:43;;;;;;;21.20;6.10;;;;;;;20.33;51.98;98829.37;67749;1278;1016305;-59
2023/09/01 04:54:45;;;;;;;22.90;7.10;;;;;;;20.53;51.62;98831.06;67739;1278;1017453;-59
2023/09/01 04:57:49;;;;;;;24.50;7.20;;;;;;;20.66;51.51;98835.99;67724;1279;1016260;-59
2023/09/01 05:00:52;;;;;;;22.70;6.70;;;;;;;20.81;51.17;98841.58;67712;1278;1015905;-59
2023/09/01 05:03:54;;;;;;;23.30;6.70;;;;;;;20.87;51.41;98845.02;67790;1278;1016685;-60
2023/09/01 05:06:56;;;;;;;19.50;6.40;;;;;;;21.03;51.07;98846.39;67745;1278;1016119;-59
2023/09/01 05:09:59;;;;;;;22.20;6.10;;;;;;;21.25;51.05;98848.70;67807;1278;1016137;-59
2023/09/01 05:13:01;;;;;;;19.70;6.10;;;;;;;21.57;50.37;98846.81;67717;1256;1016188;-60
2023/09/01 05:16:07;;;;;;;22.00;5.40;;;;;;;21.77;50.18;98846.45;67723;1278;1016327;-59
2023/09/01 05:19:09;;;;;;;18.30;5.40;;;;;;;21.72;49.52;98847.30;67722;1279;1016337;-59
2023/09/01 05:22:11;;;;;;;17.90;5.80;;;;;;;21.75;49.79;98848.09;67726;1278;1016390;-59
2023/09/01 05:25:14;;;;;;;22.00;5.00;;;;;;;21.74;49.62;98850.76;67777;1278;1016249;-59
2023/09/01 05:28:16;;;;;;;18.90;5.10;;;;;;;21.77;49.66;98853.25;67750;1279;1016420;-59
2023/09/01 05:31:18;;;;;;;22.90;5.90;;;;;;;21.87;49.98;98854.80;67802;1278;1016427;-59
2023/09/01 05:34:21;;;;;;;20.40;5.30;;;;;;;21.94;50.07;98852.66;67710;1278;1018314;-60
2023/09/01 05:37:24;;;;;;;17.90;5.20;;;;;;;22.00;49.66;98854.64;67729;1278;1016879;-59
2023/09/01 05:40:26;;;;;;;19.40;5.40;;;;;;;22.39;49.26;98859.52;67766;1279;1016461;-60
2023/09/01 05:43:29;;;;;;;19.70;4.80;;;;;;;22.48;49.10;98860.85;67760;1279;1016474;-59
2023/09/01 05:46:31;;;;;;;15.70;4.40;;;;;;;22.57;48.75;98863.48;67732;1278;1016455;-59
2023/09/01 05:49:33;;;;;;;20.30;5.10;;;;;;;22.66;48.45;98865.50;67748;1278;1016355;-60
2023/09/01 05:52:36;;;;;;;;;;;;;;;22.68;48.09;98866.86;67740;1279;1017786;-60
2023/09/01 05:55:38;;;;;;;17.90;4.70;;;;;;;22.68;48.49;98869.77;67773;1279;1016377;-60
2023/09/01 05:58:40;;;;;;;16.90;4.80;;;;;;;22.84;48.28;98862.75;67777;1279;1016272;-60
2023/09/01 06:01:43;;;;;;;;;;;;;;;22.96;48.23;98866.29;67752;1279;1015973;-60
2023/09/01 06:04:46;;;;;;;17.50;4.70;;;;;;;23.01;47.46;98864.63;67717;1279;1016424;-59
2023/09/01 06:07:48;;;;;;;18.60;4.90;;;;;;;23.18;47.63;98866.98;67594;1279;1016261;-60
2023/09/01 06:10:51;;;;;;;17.80;5.20;;;;;;;23.39;47.68;98875.70;67762;1279;1016241;-60
2023/09/01 06:13:53;;;;;;;17.40;4.80;;;;;;;23.59;47.56;98884.89;67763;1279;1016264;-60
2023/09/01 06:16:56;;;;;;;;;;;;;;;23.73;46.72;98890.45;67728;1278;1016204;-62
2023/09/01 06:19:58;;;;;;;16.60;4.40;;;;;;;23.58;46.20;98889.30;67715;1279;1016361;-59
2023/09/01 06:23:01;;;;;;;18.50;4.90;;;;;;;23.81;46.70;98890.03;67795;1279;1016672;-60
2023/09/01 06:26:03;;;;;;;;;;;;;;;24.19;46.18;98891.26;67787;1279;1016401;-59
2023/09/01 06:29:06;;;;;;;20.10;5.20;;;;;;;24.10;46.96;98894.57;67749;1279;1016898;-59
2023/09/01 06:32:11;;;;;;;;;;;;;;;24.32;46.01;98896.34;67765;1279;1016421;-59
2023/09/01 06:35:14;;;;;;;19.40;5.40;;;;;;;24.50;46.33;98894.63;67719;1279;1016430;-60
2023/09/01 06:38:16;;;;;;;21.10;4.90;;;;;;;24.60;45.49;98895.02;67724;1279;1018131;-59
2023/09/01 06:41:19;;;;;;;;;;;;;;;24.77;44.97;98897.32;67778;1279;1016204;-60
2023/09/01 06:44:21;;;;;;;18.70;5.00;;;;;;;24.77;44.94;98895.38;67760;1279;1015964;-59
2023/09/01 06:47:23;;;;;;;;;;;;;;;24.74;45.49;98896.74;67788;1278;1016692;-60
2023/09/01 06:50:26;;;;;;;16.20;5.30;;;;;;;24.91;45.20;98894.23;67756;1278;1019858;-60
2023/09/01 06:53:28;;;;;;;20.40;4.90;;;;;;;25.12;45.41;98896.00;67709;1279;1016467;-60
2023/09/01 06:56:31;;;;;;;;;;;;;;;25.19;44.52;98891.77;67717;1278;1016741;-60
2023/09/01 06:59:33;;;;;;;;;;;;;;;25.19;43.94;98894.85;67716;1279;1016452;-60
2023/09/01 07:02:36;;;;;;;;;;;;;;;25.30;44.15;98895.30;67743;1279;1016435;-60
2023/09/01 07:05:38;;;;;;;15.90;4.30;;;;;;;25.32;44.69;98896.58;67713;1279;1018317;-60
2023/09/01 07:08:41;;;;;;;;;;;;;;;25.39;44.38;98897.73;67751;1279;1016335;-60
2023/09/01 07:11:43;;;;;;;17.40;4.30;;;;;;;25.46;44.10;98897.95;67773;1278;1017199;-60
2023/09/01 07:14:46;;;;;;;16.40;4.40;;;;;;;25.64;43.85;98892.36;67786;1279;1016454;-60
2023/09/01 07:17:48;;;;;;;14.10;3.80;;;;;;;25.91;43.93;98891.72;67716;1279;1016467;-60
2023/09/01 07:20:50;;;;;;;14.30;4.30;;;;;;;26.08;43.21;98890.58;67718;1279;1016464;-59
2023/09/01 07:23:53;;;;;;;14.50;4.00;;;;;;;26.36;42.87;98892.20;67759;1279;1017661;-60
2023/09/01 07:26:55;;;;;;;18.60;4.50;;;;;;;26.89;42.15;98883.20;67737;1279;1016114;-60
2023/09/01 07:29:58;;;;;;;17.70;4.30;;;;;;;27.24;41.35;98886.66;67734;1278;1017231;-60
2023/09/01 07:33:00;;;;;;;16.30;3.90;;;;;;;27.28;40.37;98895.97;67751;1279;1016323;-60
2023/09/01 07:36:02;;;;;;;15.90;3.60;;;;;;;27.15;40.57;98895.48;67740;1278;1016410;-60
2023/09/01 07:39:05;;;;;;;14.10;3.90;;;;;;;27.29;40.10;98897.08;67740;1278;1016386;-60
2023/09/01 07:42:07;;;;;;;16.70;4.30;;;;;;;27.39;40.34;98900.83;67788;1279;1016489;-60
2023/09/01 07:45:10;;;;;;;13.80;3.70;;;;;;;27.57;40.57;98909.94;67754;1279;1015753;-60
2023/09/01 07:48:12;;;;;;;12.80;3.70;;;;;;;27.48;38.59;98914.35;67692;1279;1016507;-59
2023/09/01 07:51:15;;;;;;;15.60;3.80;;;;;;;27.35;39.46;98912.90;67714;1279;1018930;-60
2023/09/01 07:54:17;;;;;;;11.20;3.10;;;;;;;27.37;39.04;98916.69;67773;1279;1016391;-60
2023/09/01 07:57:20;;;;;;;12.90;3.50;;;;;;;27.54;39.38;98915.06;67762;1279;1016571;-60
2023/09/01 08:00:22;;;;;;;15.00;3.60;;;;;;;27.74;39.37;98919.69;67714;1279;1016713;-60
2023/09/01 08:03:25;;;;;;;11.90;3.20;;;;;;;27.74;37.85;98924.26;67726;1278;1016114;-59
2023/09/01 08:06:29;;;;;;;18.20;3.60;;;;;;;27.71;38.32;98915.59;67751;1279;1016016;-61
2023/09/01 08:09:31;;;;;;;13.70;3.30;;;;;;;28.05;37.86;98917.02;67760;1279;1016432;-60
2023/09/01 08:12:34;;;;;;;13.50;3.40;;;;;;;28.07;36.59;98916.23;67794;1279;1016203;-60
2023/09/01 08:15:36;;;;;;;11.20;3.00;;;;;;;28.34;37.58;98912.64;67676;1279;1016226;-59
2023/09/01 08:18:39;;;;;;;12.80;3.20;;;;;;;28.32;35.47;98917.08;67711;1279;1016460;-59
2023/09/01 08:21:41;;;;;;;9.20;2.90;;;;;;;27.83;35.15;98918.11;67755;1279;1016475;-59
2023/09/01 08:24:44;;;;;;;13.90;3.20;;;;;;;27.80;35.68;98908.73;67772;1279;1016418;-60
2023/09/01 08:27:46;;;;;;;10.60;3.00;;;;;;;27.86;35.67;98907.79;67743;1279;1019366;-60
2023/09/01 08:30:49;;;;;;;10.90;3.30;;;;;;;28.09;34.99;98913.29;67698;1279;1016426;-60
2023/09/01 08:33:51;;;;;;;12.40;3.30;;;;;;;27.94;34.63;98910.85;67798;1279;1019099;-60
2023/09/01 08:36:54;;;;;;;12.10;3.10;;;;;;;28.27;36.35;98909.02;67740;1279;1016493;-60
2023/09/01 08:39:56;;;;;;;11.20;3.00;;;;;;;28.74;35.78;98904.41;67729;1279;1016357;-60
2023/09/01 08:43:00;;;;;;;12.10;2.90;;;;;;;28.85;35.01;98900.85;67706;1279;1016451;-60
2023/09/01 08:46:03;;;;;;;12.60;3.10;;;;;;;28.49;34.84;98899.34;67729;1278;1019332;-60
2023/09/01 08:49:05;;;;;;;11.60;3.10;;;;;;;28.49;35.43;98898.55;67772;1279;1016410;-60
2023/09/01 08:52:08;;;;;;;13.40;3.10;;;;;;;28.63;35.16;98898.98;67788;1279;1016460;-60
2023/09/01 08:55:11;;;;;;;15.80;3.10;;;;;;;28.84;34.47;98902.10;67707;1279;1016164;-60
2023/09/01 08:58:13;;;;;;;12.40;3.20;;;;;;;28.57;34.53;98902.66;67740;1279;1018958;-58
2023/09/01 09:01:16;;;;;;;11.40;3.00;;;;;;;28.95;34.75;98904.95;67767;1279;1016494;-60
2023/09/01 09:04:18;;;;;;;11.20;3.10;;;;;;;29.54;34.74;98907.02;67774;1278;1018013;-60
2023/09/01 09:07:21;;;;;;;12.50;3.20;;;;;;;29.59;34.45;98900.76;67719;1278;1016495;-60
2023/09/01 09:10:23;;;;;;;11.50;2.90;;;;;;;29.77;33.91;98902.96;67740;1279;1018090;-60
2023/09/01 09:13:26;;;;;;;17.80;3.70;;;;;;;29.79;33.34;98904.88;67763;1278;1016467;-61
2023/09/01 09:16:28;;;;;;;13.90;3.20;;;;;;;29.22;32.84;98908.04;67753;1279;1016968;-60
2023/09/01 09:19:30;;;;;;;10.50;3.10;;;;;;;29.07;34.10;98911.40;67751;1279;1016721;-60
2023/09/01 09:22:33;;;;;;;12.80;3.00;;;;;;;29.41;33.34;98906.91;67740;1279;1016493;-60
2023/09/01 09:25:36;;;;;;;15.50;3.80;;;;;;;29.35;32.56;98904.48;67735;1279;1018152;-60
2023/09/01 09:28:38;;;;;;;13.40;3.20;;;;;;;29.59;33.36;98903.50;67718;1279;1016301;-60
2023/09/01 09:31:40;;;;;;;12.70;3.30;;;;;;;29.89;32.07;98904.19;67725;1279;1016233;-60
2023/09/01 09:34:43;;;;;;;12.00;3.20;;;;;;;30.00;32.38;98902.89;67729;1279;1016916;-60
2023/09/01 09:37:47;;;;;;;10.70;3.10;;;;;;;30.22;31.92;98898.77;67768;1279;1016485;-60
2023/09/01 09:40:50;;;;;;;11.00;3.00;;;;;;;30.28;31.43;98903.77;67752;1279;1015767;-60
2023/09/01 09:43:52;;;;;;;12.40;3.20;;;;;;;30.22;30.37;98911.64;67797;1278;1017261;-60
2023/09/01 09:46:54;;;;;;;11.80;3.20;;;;;;;29.76;31.49;98905.63;67765;1278;1016455;-60
2023/09/01 09:49:57;;;;;;;12.00;3.20;;;;;;;30.32;32.47;98910.02;67747;1279;1016326;-60
2023/09/01 09:52:59;;;;;;;12.30;3.10;;;;;;;30.40;31.37;98917.67;67731;1279;1016404;-61
2023/09/01 09:56:01;;;;;;;13.80;4.20;;;;;;;30.14;30.56;98922.80;67711;1279;1016273;-60
2023/09/01 09:59:04;;;;;;;14.50;3.20;;;;;;;30.11;31.19;98925.77;67763;1279;1016479;-60
2023/09/01 10:02:06;;;;;;;14.50;3.10;;;;;;;30.38;31.10;98928.01;67756;1258;1016468;-60
2023/09/01 10:05:11;;;;;;;14.50;3.30;;;;;;;30.95;31.23;98920.29;67706;1280;1016793;-60
2023/09/01 10:08:14;;;;;;;12.60;3.10;;;;;;;30.04;30.33;98931.43;67697;1280;1016643;-60
2023/09/01 10:11:16;;;;;;;11.50;3.30;;;;;;;28.97;31.96;98931.44;67748;1280;1016266;-61
2023/09/01 10:14:20;;;;;;;17.10;3.70;;;;;;;28.69;32.71;98925.88;67749;1280;1016251;-60
2023/09/01 10:17:22;;;;;;;16.40;3.30;;;;;;;28.48;32.91;98930.91;67735;1280;1015782;-59
2023/09/01 10:20:25;;;;;;;16.10;3.80;;;;;;;28.99;32.91;98932.85;67666;1279;1016340;-60
2023/09/01 10:23:28;;;;;;;17.70;3.80;;;;;;;29.06;32.40;98934.00;67688;1280;1016421;-60
2023/09/01 10:26:30;;;;;;;14.40;3.50;;;;;;;28.80;32.75;98934.00;67736;1280;1016243;-60
2023/09/01 10:29:34;;;;;;;14.90;3.50;;;;;;;28.45;32.51;98932.20;67744;1280;1016426;-60
2023/09/01 10:32:38;;;;;;;14.50;3.40;;;;;;;28.41;33.08;98933.11;67734;1280;1016784;-60
2023/09/01 10:35:40;;;;;;;14.60;3.80;;;;;;;28.71;33.34;98929.02;67722;1280;1016301;-60
2023/09/01 10:38:43;;;;;;;14.30;3.60;;;;;;;28.56;33.27;98930.83;67746;1280;1016209;-60
2023/09/01 10:41:45;;;;;;;15.00;3.60;;;;;;;29.29;32.55;98925.63;67756;1280;1016536;-60
2023/09/01 10:44:47;;;;;;;14.50;3.30;;;;;;;29.54;31.40;98929.42;67689;1280;1016471;-60
2023/09/01 10:47:52;;;;;;;12.60;3.30;;;;;;;29.42;31.44;98925.48;67636;1280;1016174;-60
2023/09/01 10:50:55;;;;;;;12.20;3.10;;;;;;;28.89;31.58;98925.77;67740;1280;1016349;-60
2023/09/01 10:53:59;;;;;;;13.60;3.10;;;;;;;28.48;31.83;98927.48;67735;1280;1016789;-60
2023/09/01 10:57:02;;;;;;;11.90;3.20;;;;;;;28.41;32.87;98924.15;67713;1280;1017987;-60
2023/09/01 11:00:06;;;;;;;14.50;3.40;;;;;;;28.75;32.20;98924.25;67728;1280;1016471;-60
2023/09/01 11:03:09;;;;;;;10.20;3.00;;;;;;;28.89;31.79;98926.64;67687;1279;1016282;-60
2023/09/01 11:06:11;;;;;;;11.00;3.00;;;;;;;29.41;31.82;98924.08;67743;1279;1016447;-60
2023/09/01 11:09:13;;;;;;;12.70;3.20;;;;;;;29.48;32.03;98920.47;67790;1279;1016338;-60
2023/09/01 11:12:16;;;;;;;13.90;3.20;;;;;;;29.96;31.76;98914.67;67768;1279;1017067;-60
2023/09/01 11:15:18;;;;;;;12.40;3.30;;;;;;;29.76;30.17;98917.57;67736;1279;1017794;-60
2023/09/01 11:18:21;;;;;;;12.20;3.20;;;;;;;29.34;31.04;98913.74;67687;1279;1016307;-60
2023/09/01 11:21:24;;;;;;;12.90;3.10;;;;;;;29.07;30.95;98914.14;67773;1279;1017545;-60
2023/09/01 11:24:26;;;;;;;14.10;3.10;;;;;;;29.05;30.92;98918.38;67711;1279;1016099;-60
2023/09/01 11:27:29;;;;;;;12.20;3.10;;;;;;;29.05;30.81;98921.75;67727;1279;1018262;-60
2023/09/01 11:30:31;;;;;;;12.80;3.10;;;;;;;28.66;30.96;98920.17;67699;1279;1016462;-60
2023/09/01 11:33:36;;;;;;;13.20;3.30;;;;;;;28.69;31.49;98916.36;67787;1279;1016643;-60
2023/09/01 11:36:38;;;;;;;17.10;3.20;;;;;;;28.85;31.71;98913.34;67721;1279;1016933;-60
2023/09/01 11:39:41;;;;;;;14.70;3.50;;;;;;;29.50;32.28;98909.77;67760;1279;1016377;-60
2023/09/01 11:42:43;;;;;;;13.40;3.30;;;;;;;29.90;30.92;98912.20;67775;1279;1016719;-60
2023/09/01 11:45:46;;;;;;;16.10;3.20;;;;;;;30.53;30.25;98908.62;67801;1279;1016478;-60
2023/09/01 11:48:48;;;;;;;14.50;3.20;;;;;;;30.82;29.96;98909.77;67700;1279;1016299;-60
2023/09/01 11:51:51;;;;;;;13.00;3.60;;;;;;;30.70;30.76;98903.31;67740;1279;1016327;-60
2023/09/01 11:54:53;;;;;;;14.00;3.40;;;;;;;30.45;30.26;98903.44;67720;1278;1016048;-60
2023/09/01 11:57:55;;;;;;;14.20;3.10;;;;;;;30.15;29.57;98910.86;67792;1279;1016162;-60
2023/09/01 12:00:58;;;;;;;13.20;2.80;;;;;;;30.54;29.98;98902.41;67791;1279;1016473;-60
2023/09/01 12:04:00;;;;;;;14.60;2.90;;;;;;;30.95;30.13;98893.46;67796;1279;1016437;-60
2023/09/01 12:07:05;;;;;;;12.70;2.90;;;;;;;31.07;29.59;98896.59;67743;1279;1017201;-60
2023/09/01 12:10:08;;;;;;;14.00;3.10;;;;;;;31.36;28.17;98904.01;67744;1279;1016187;-60
2023/09/01 12:13:11;;;;;;;10.30;2.80;;;;;;;31.37;28.92;98903.15;67753;1278;1016333;-60
2023/09/01 12:16:13;;;;;;;13.60;3.20;;;;;;;31.49;28.24;98906.73;67720;1279;1016431;-60
2023/09/01 12:19:16;;;;;;;13.70;3.00;;;;;;;31.00;27.88;98905.59;67749;1279;1016408;-60
2023/09/01 12:22:18;;;;;;;18.40;3.60;;;;;;;30.26;28.62;98905.15;67768;1279;1016234;-60
2023/09/01 12:25:21;;;;;;;16.40;3.60;;;;;;;30.01;29.85;98903.41;67734;1279;1016325;-60
2023/09/01 12:28:23;;;;;;;12.10;3.10;;;;;;;30.29;30.07;98897.27;67703;1279;1016304;-60
2023/09/01 12:31:25;;;;;;;11.70;3.20;;;;;;;30.73;30.24;98891.79;67765;1279;1016181;-60
2023/09/01 12:34:28;;;;;;;14.80;3.30;;;;;;;31.30;28.41;98893.33;67749;1279;1016375;-60
2023/09/01 12:37:30;;;;;;;11.00;2.80;;;;;;;31.33;28.53;98886.29;67782;1279;1016812;-59
2023/09/01 12:40:32;;;;;;;11.30;3.20;;;;;;;31.52;28.27;98884.14;67760;1278;1016456;-60
2023/09/01 12:43:35;;;;;;;10.80;3.30;;;;;;;31.14;28.56;98880.35;67729;1278;1015995;-60
2023/09/01 12:46:37;;;;;;;12.30;3.30;;;;;;;30.58;28.93;98892.75;67730;1279;1016376;-60
2023/09/01 12:49:43;;;;;;;11.90;3.00;;;;;;;30.33;28.80;98894.75;67727;1279;1016203;-60
2023/09/01 12:52:45;;;;;;;14.40;3.30;;;;;;;30.64;28.98;98898.08;67732;1279;1016396;-60
2023/09/01 12:55:48;;;;;;;12.10;3.30;;;;;;;31.20;29.81;98889.59;67724;1279;1018416;-60
2023/09/01 12:58:50;;;;;;;18.40;3.60;;;;;;;31.41;29.25;98891.02;67777;1279;1015943;-60
2023/09/01 13:01:53;;;;;;;14.80;3.60;;;;;;;31.45;29.56;98888.39;67749;1278;1016434;-60
2023/09/01 13:04:55;;;;;;;14.00;3.70;;;;;;;31.57;29.53;98890.06;67748;1279;1016612;-60
2023/09/01 13:07:59;;;;;;;12.30;3.10;;;;;;;31.36;29.77;98899.71;67677;1279;1016362;-61
2023/09/01 13:11:04;;;;;;;11.00;3.30;;;;;;;30.67;29.49;98902.51;67698;1279;1016497;-60
2023/09/01 13:14:06;;;;;;;16.80;3.50;;;;;;;30.21;30.32;98896.95;67771;1279;1016326;-60
2023/09/01 13:17:08;;;;;;;14.30;3.30;;;;;;;29.89;30.61;98901.83;67788;1279;1016548;-58
2023/09/01 13:20:11;;;;;;;16.20;3.70;;;;;;;29.88;31.22;98900.98;67769;1279;1016521;-59
2023/09/01 13:23:13;;;;;;;14.70;3.30;;;;;;;29.49;31.49;98897.90;67732;1279;1016735;-59
2023/09/01 13:26:22;;;;;;;15.10;4.00;;;;;;;29.66;31.31;98898.98;67779;1279;1016425;-58
2023/09/01 13:29:25;;;;;;;14.10;3.40;;;;;;;29.62;30.93;98898.88;67785;1279;1016334;-59
2023/09/01 13:32:27;;;;;;;15.50;3.70;;;;;;;29.86;31.39;98898.57;67738;1279;1018764;-59
2023/09/01 13:35:30;;;;;;;16.30;3.60;;;;;;;29.81;31.54;98900.77;67757;1279;1016370;-58
2023/09/01 13:38:38;;;;;;;13.00;3.10;;;;;;;29.82;31.38;98893.27;67786;1279;1018730;-58
2023/09/01 13:41:41;;;;;;;12.30;3.60;;;;;;;30.29;31.01;98892.71;67780;1279;1016265;-61
2023/09/01 13:44:43;;;;;;;14.90;3.40;;;;;;;31.28;30.50;98885.45;67708;1278;1016483;-59
2023/09/01 13:47:46;;;;;;;12.50;3.30;;;;;;;31.16;29.42;98894.73;67726;1279;1016379;-60
2023/09/01 13:50:48;;;;;;;14.60;3.40;;;;;;;30.70;29.49;98902.14;67760;1278;1016199;-60
2023/09/01 13:53:51;;;;;;;11.60;3.00;;;;;;;30.68;30.05;98898.04;67768;1279;1016212;-61